Time;durP1;ratioP1;P1;durP2;ratioP2;P2;SDS_P1;SDS_P2;PMS_P1;PMS_P2;Temp;Humidity;BMP_temperature;BMP_pressure;BME280_temperature;BME280_humidity;BME280_pressure;Samples;Min_cycle;Max_cycle;Signal;HPM_P1;HPM_P2
2023/08/03 00:00:09;;;;;;;7.63;4.27;;;;;18.70;95634.00;;;;5048938;28;20570;-84
2023/08/03 00:02:58;;;;;;;9.00;4.77;;;;;18.70;95625.00;;;;5055512;28;20273;-83
2023/08/03 00:05:48;;;;;;;6.77;4.07;;;;;18.80;95635.00;;;;5058705;28;20215;-84
2023/08/03 00:08:37;;;;;;;9.57;4.63;;;;;18.60;95628.00;;;;5053911;28;20291;-83
2023/08/03 00:11:27;;;;;;;9.57;4.70;;;;;18.40;95628.00;;;;5051298;28;20215;-82
2023/08/03 00:14:16;;;;;;;6.90;4.77;;;;;18.20;95633.00;;;;5051795;28;20220;-82
2023/08/03 00:17:06;;;;;;;6.90;4.60;;;;;18.40;95623.00;;;;5051010;28;20204;-83
2023/08/03 00:19:55;;;;;;;8.17;4.60;;;;;18.50;95623.00;;;;5048587;28;20900;-83
2023/08/03 00:22:46;;;;;;;7.90;6.03;;;;;18.20;95627.00;;;;5050485;28;20568;-83
2023/08/03 00:25:35;;;;;;;6.53;4.37;;;;;17.60;95630.00;;;;5048879;28;20285;-83
2023/08/03 00:28:25;;;;;;;4.93;4.00;;;;;17.80;95633.00;;;;5047650;28;20212;-84
2023/08/03 00:31:15;;;;;;;5.87;4.97;;;;;18.10;95629.00;;;;5050704;28;20219;-83
2023/08/03 00:34:04;;;;;;;6.10;4.47;;;;;18.30;95632.00;;;;5047842;28;20274;-84
2023/08/03 00:36:53;;;;;;;6.93;4.83;;;;;17.90;95621.00;;;;5048110;28;20200;-84
2023/08/03 00:39:42;;;;;;;4.87;4.43;;;;;17.80;95627.00;;;;5049607;28;20200;-84
2023/08/03 00:42:31;;;;;;;5.60;5.00;;;;;17.90;95632.00;;;;5049106;28;20215;-83
2023/08/03 00:45:22;;;;;;;6.63;4.73;;;;;18.10;95635.00;;;;5051010;28;20233;-84
2023/08/03 00:48:11;;;;;;;6.73;4.07;;;;;17.90;95634.00;;;;5051713;28;20227;-83
2023/08/03 00:51:00;;;;;;;10.07;5.03;;;;;18.10;95635.00;;;;5047981;28;20201;-83
2023/08/03 00:53:49;;;;;;;5.10;4.57;;;;;17.90;95634.00;;;;5045708;28;20685;-83
2023/08/03 00:56:38;;;;;;;6.47;4.87;;;;;18.20;95639.00;;;;5050147;28;20672;-83
2023/08/03 00:59:28;;;;;;;7.60;5.17;;;;;17.80;95628.00;;;;5050612;28;20200;-82
2023/08/03 01:02:18;;;;;;;4.97;4.43;;;;;17.70;95627.00;;;;5050455;28;20200;-83
2023/08/03 01:05:07;;;;;;;8.67;4.77;;;;;17.50;95637.00;;;;5050832;28;20224;-84
2023/08/03 01:07:57;;;;;;;5.17;4.67;;;;;17.40;95638.00;;;;5051310;28;20196;-83
2023/08/03 01:10:46;;;;;;;8.53;4.63;;;;;17.90;95638.00;;;;5048543;28;20631;-85
2023/08/03 01:13:35;;;;;;;5.70;4.80;;;;;17.90;95641.00;;;;5048756;28;20228;-83
2023/08/03 01:16:24;;;;;;;5.10;4.63;;;;;17.40;95644.00;;;;5048686;28;20209;-83
2023/08/03 01:19:16;;;;;;;7.43;5.50;;;;;17.90;95644.00;;;;5050337;28;20197;-83
2023/08/03 01:22:06;;;;;;;6.37;5.10;;;;;18.00;95640.00;;;;5047721;28;20205;-83
2023/08/03 01:24:56;;;;;;;7.77;4.80;;;;;18.20;95638.00;;;;5046266;28;20225;-84
2023/08/03 01:27:47;;;;;;;6.73;5.20;;;;;18.10;95646.00;;;;5050128;28;20370;-83
2023/08/03 01:30:36;;;;;;;7.23;4.77;;;;;17.90;95649.00;;;;5049512;28;20820;-83
2023/08/03 01:33:25;;;;;;;5.97;4.90;;;;;18.00;95657.00;;;;5050473;28;20225;-82
2023/08/03 01:36:15;;;;;;;5.70;5.10;;;;;18.10;95653.00;;;;5050271;28;20200;-84
2023/08/03 01:39:08;;;;;;;8.27;4.80;;;;;18.10;95654.00;;;;5049389;28;20682;-83
2023/08/03 01:41:59;;;;;;;6.37;4.87;;;;;18.10;95662.00;;;;5049172;28;20193;-83
2023/08/03 01:44:48;;;;;;;9.33;4.10;;;;;18.10;95653.00;;;;5050261;28;20228;-82
2023/08/03 01:47:37;;;;;;;5.30;4.80;;;;;18.00;95656.00;;;;5048786;28;20579;-82
2023/08/03 01:50:26;;;;;;;11.43;4.90;;;;;18.00;95660.00;;;;5044299;28;20216;-83
2023/08/03 01:53:17;;;;;;;6.07;5.10;;;;;17.60;95671.00;;;;5049282;28;20228;-83
2023/08/03 01:56:06;;;;;;;13.70;5.70;;;;;17.70;95667.00;;;;5049798;28;20254;-84
2023/08/03 01:58:57;;;;;;;5.13;4.63;;;;;17.60;95681.00;;;;5046556;28;20197;-84
2023/08/03 02:01:46;;;;;;;6.97;5.10;;;;;17.40;95673.00;;;;5047412;28;20208;-81
2023/08/03 02:04:35;;;;;;;5.43;4.93;;;;;17.70;95673.00;;;;5047456;28;20236;-84
2023/08/03 02:07:42;;;;;;;8.43;5.93;;;;;17.80;95658.00;;;;5049157;28;20219;-83
2023/08/03 02:10:31;;;;;;;6.33;4.93;;;;;17.80;95660.00;;;;5046148;28;20196;-84
2023/08/03 02:13:21;;;;;;;9.20;5.20;;;;;17.60;95665.00;;;;5048453;28;20227;-82
2023/08/03 02:16:11;;;;;;;5.97;5.07;;;;;17.40;95655.00;;;;5048657;28;20209;-83
2023/08/03 02:19:07;;;;;;;7.73;4.97;;;;;17.80;95669.00;;;;5046963;28;20572;-82
2023/08/03 02:21:56;;;;;;;7.23;5.20;;;;;17.80;95663.00;;;;5045808;28;20750;-83
2023/08/03 02:24:45;;;;;;;6.13;5.60;;;;;17.50;95669.00;;;;5048655;28;20293;-82
2023/08/03 02:27:34;;;;;;;7.17;4.93;;;;;17.40;95675.00;;;;5048244;28;20197;-83
2023/08/03 02:30:23;;;;;;;7.13;4.83;;;;;17.80;95679.00;;;;5048562;28;20201;-82
2023/08/03 02:33:14;;;;;;;5.73;5.20;;;;;17.80;95681.00;;;;5047924;28;20216;-83
2023/08/03 02:36:04;;;;;;;12.73;6.47;;;;;18.00;95693.00;;;;5047557;28;20603;-85
2023/08/03 02:38:53;;;;;;;5.13;4.57;;;;;18.00;95688.00;;;;5047843;28;20688;-84
2023/08/03 02:41:42;;;;;;;9.03;5.13;;;;;18.00;95690.00;;;;5047732;28;20695;-83
2023/08/03 02:44:31;;;;;;;5.43;4.67;;;;;17.80;95698.00;;;;5048118;28;20220;-82
2023/08/03 02:47:20;;;;;;;6.70;4.67;;;;;17.90;95693.00;;;;5048780;28;20748;-83
2023/08/03 02:50:11;;;;;;;7.27;4.10;;;;;18.00;95694.00;;;;5044504;28;20204;-83
2023/08/03 02:53:00;;;;;;;6.03;4.73;;;;;17.90;95689.00;;;;5045295;28;20228;-83
2023/08/03 02:55:49;;;;;;;10.70;4.77;;;;;17.70;95700.00;;;;5048343;28;20227;-83
2023/08/03 02:58:38;;;;;;;7.47;4.87;;;;;17.80;95702.00;;;;5047268;28;20597;-82
2023/08/03 03:01:27;;;;;;;5.30;4.80;;;;;18.00;95706.00;;;;5045305;28;20671;-83
2023/08/03 03:04:16;;;;;;;10.63;4.90;;;;;18.00;95694.00;;;;5048017;28;20247;-83
2023/08/03 03:07:08;;;;;;;6.47;5.00;;;;;17.50;95706.00;;;;5047132;28;20211;-83
2023/08/03 03:09:57;;;;;;;5.43;4.93;;;;;17.80;95706.00;;;;5044223;28;20541;-82
2023/08/03 03:12:46;;;;;;;6.20;5.30;;;;;17.90;95711.00;;;;5046082;28;20204;-83
2023/08/03 03:15:35;;;;;;;6.97;5.20;;;;;17.00;95716.00;;;;5045434;28;20208;-82
2023/08/03 03:18:24;;;;;;;5.83;4.80;;;;;17.20;95728.00;;;;5048373;28;20287;-84
2023/08/03 03:21:13;;;;;;;5.83;4.30;;;;;17.40;95727.00;;;;5047118;28;20756;-83
2023/08/03 03:24:04;;;;;;;5.60;4.80;;;;;17.30;95743.00;;;;5042073;28;20223;-83
2023/08/03 03:26:54;;;;;;;6.00;5.33;;;;;17.40;95742.00;;;;5044858;28;20270;-83
2023/08/03 03:29:43;;;;;;;6.23;4.63;;;;;17.50;95756.00;;;;5049943;28;20223;-83
2023/08/03 03:32:32;;;;;;;6.10;5.33;;;;;17.20;95760.00;;;;5050832;28;20212;-85
2023/08/03 03:35:21;;;;;;;9.83;6.13;;;;;17.60;95775.00;;;;5052229;28;20708;-82
2023/08/03 03:38:11;;;;;;;7.77;6.10;;;;;17.70;95769.00;;;;5050133;28;20233;-84
2023/08/03 03:41:01;;;;;;;5.97;5.27;;;;;17.90;95777.00;;;;5050788;28;20208;-83
2023/08/03 03:43:50;;;;;;;7.67;5.83;;;;;18.00;95773.00;;;;5051286;28;20228;-83
2023/08/03 03:46:39;;;;;;;7.00;4.70;;;;;17.90;95785.00;;;;5051307;28;20224;-83
2023/08/03 03:49:28;;;;;;;6.27;5.60;;;;;17.70;95801.00;;;;5048813;28;20201;-84
2023/08/03 03:52:17;;;;;;;5.60;5.10;;;;;17.80;95789.00;;;;5051154;28;20220;-83
2023/08/03 03:55:08;;;;;;;6.37;5.33;;;;;18.20;95798.00;;;;5049001;28;20204;-83
2023/08/03 03:58:00;;;;;;;6.30;5.70;;;;;18.00;95791.00;;;;5049831;28;20196;-84
2023/08/03 04:00:49;;;;;;;6.77;5.03;;;;;18.10;95795.00;;;;5045180;28;20204;-83
2023/08/03 04:03:38;;;;;;;6.73;6.03;;;;;17.70;95783.00;;;;5049898;28;20228;-82
2023/08/03 04:06:27;;;;;;;9.53;5.73;;;;;17.60;95788.00;;;;5049945;28;20334;-83
2023/08/03 04:09:16;;;;;;;6.97;5.10;;;;;17.20;95787.00;;;;5051655;28;20193;-83
2023/08/03 04:12:06;;;;;;;6.83;5.20;;;;;17.10;95780.00;;;;5048816;28;20200;-84
2023/08/03 04:14:56;;;;;;;9.90;5.33;;;;;17.20;95783.00;;;;5047256;28;20224;-84
2023/08/03 04:17:48;;;;;;;8.17;6.00;;;;;17.50;95779.00;;;;5057651;28;20207;-83
2023/08/03 04:20:37;;;;;;;7.83;5.27;;;;;17.70;95774.00;;;;5056201;28;20209;-83
2023/08/03 04:23:26;;;;;;;7.73;5.53;;;;;17.70;95779.00;;;;5050300;28;20229;-84
2023/08/03 04:26:16;;;;;;;8.37;5.60;;;;;18.10;95796.00;;;;5050325;28;20220;-85
2023/08/03 04:29:05;;;;;;;8.97;6.37;;;;;18.10;95794.00;;;;5048235;28;20201;-84
2023/08/03 04:31:55;;;;;;;6.97;6.27;;;;;18.30;95805.00;;;;5047923;28;20205;-84
2023/08/03 04:34:44;;;;;;;7.27;6.40;;;;;18.70;95806.00;;;;5050709;28;20793;-83
2023/08/03 04:37:33;;;;;;;9.77;5.73;;;;;18.50;95805.00;;;;5050841;28;20683;-84
2023/08/03 04:40:22;;;;;;;9.07;5.83;;;;;18.10;95812.00;;;;5049826;28;20211;-82
2023/08/03 04:43:11;;;;;;;11.47;6.37;;;;;18.20;95816.00;;;;5050337;28;20216;-84
2023/08/03 04:46:01;;;;;;;10.00;6.17;;;;;18.60;95820.00;;;;5046716;28;20224;-83
2023/08/03 04:48:51;;;;;;;7.83;5.90;;;;;19.00;95816.00;;;;5046102;28;20199;-85
2023/08/03 04:51:40;;;;;;;9.97;5.90;;;;;19.10;95810.00;;;;5049118;28;20204;-85
2023/08/03 04:54:29;;;;;;;7.70;5.87;;;;;19.10;95812.00;;;;5051050;28;20696;-84
2023/08/03 04:57:18;;;;;;;8.60;6.37;;;;;19.20;95822.00;;;;5048466;28;20207;-86
2023/08/03 05:00:09;;;;;;;6.10;5.43;;;;;18.90;95837.00;;;;5050512;28;20281;-84
2023/08/03 05:02:58;;;;;;;6.43;5.03;;;;;18.80;95841.00;;;;5047746;28;20250;-85
2023/08/03 05:05:48;;;;;;;8.67;6.00;;;;;19.20;95835.00;;;;5049789;28;20228;-84
2023/08/03 05:08:38;;;;;;;6.27;5.53;;;;;19.50;95830.00;;;;5050882;28;20668;-85
2023/08/03 05:11:27;;;;;;;7.40;6.20;;;;;19.60;95819.00;;;;5048294;28;20200;-84
2023/08/03 05:14:16;;;;;;;9.70;6.87;;;;;20.00;95821.00;;;;5049432;28;20270;-84
2023/08/03 05:17:06;;;;;;;5.83;5.23;;;;;20.10;95817.00;;;;5046490;28;20207;-84
2023/08/03 05:19:55;;;;;;;6.37;5.77;;;;;20.30;95817.00;;;;5040993;28;20247;-84
2023/08/03 05:22:45;;;;;;;9.10;5.57;;;;;20.50;95840.00;;;;5049294;28;20204;-84
2023/08/03 05:25:34;;;;;;;5.97;5.37;;;;;20.60;95835.00;;;;5054326;28;20219;-85
2023/08/03 05:28:24;;;;;;;7.60;5.67;;;;;20.90;95834.00;;;;5057535;28;20204;-83
2023/08/03 05:31:13;;;;;;;12.90;5.57;;;;;21.10;95823.00;;;;5055583;28;20205;-84
2023/08/03 05:34:02;;;;;;;9.57;6.77;;;;;21.30;95834.00;;;;5052429;28;20228;-84
2023/08/03 05:36:52;;;;;;;8.10;5.87;;;;;21.40;95835.00;;;;5052744;28;20252;-84
2023/08/03 05:39:43;;;;;;;11.00;6.20;;;;;21.50;95840.00;;;;5052086;28;20243;-85
2023/08/03 05:42:38;;;;;;;10.80;6.30;;;;;21.60;95851.00;;;;5053830;28;20265;-86
2023/08/03 05:45:38;;;;;;;10.43;6.07;;;;;21.70;95862.00;;;;5058917;28;21050;-85
2023/08/03 05:48:30;;;;;;;12.67;5.73;;;;;21.70;95864.00;;;;5059755;28;20207;-85
2023/08/03 05:51:26;;;;;;;9.10;5.97;;;;;21.70;95860.00;;;;5056166;28;20274;-84
2023/08/03 05:54:16;;;;;;;10.33;5.20;;;;;21.80;95869.00;;;;5049974;28;20219;-84
2023/08/03 05:57:09;;;;;;;6.23;4.87;;;;;21.80;95872.00;;;;5050734;28;20197;-85
2023/08/03 05:59:58;;;;;;;7.43;5.20;;;;;21.80;95873.00;;;;5047295;28;20261;-85
2023/08/03 06:02:48;;;;;;;7.20;5.30;;;;;21.90;95875.00;;;;5048591;28;20671;-85
2023/08/03 06:05:45;;;;;;;8.23;5.90;;;;;22.00;95879.00;;;;5055762;28;20216;-86
2023/08/03 06:08:34;;;;;;;6.73;5.03;;;;;22.00;95884.00;;;;5058088;28;20752;-85
2023/08/03 06:11:23;;;;;;;8.73;4.50;;;;;22.10;95890.00;;;;5049077;28;20204;-84
2023/08/03 06:14:18;;;;;;;8.30;4.27;;;;;22.10;95892.00;;;;5047653;28;20221;-85
2023/08/03 06:17:07;;;;;;;7.67;4.20;;;;;22.00;95893.00;;;;5047770;28;20677;-85
2023/08/03 06:19:57;;;;;;;5.17;4.63;;;;;22.10;95892.00;;;;5049477;28;20209;-86
2023/08/03 06:22:46;;;;;;;5.73;3.30;;;;;22.20;95896.00;;;;5047447;28;20207;-85
2023/08/03 06:25:35;;;;;;;5.10;4.03;;;;;22.30;95901.00;;;;5048000;28;20220;-85
2023/08/03 06:28:26;;;;;;;7.30;3.83;;;;;22.20;95908.00;;;;5046876;28;20721;-85
2023/08/03 06:31:20;;;;;;;8.37;4.47;;;;;22.20;95911.00;;;;5042269;28;20209;-87
2023/08/03 06:34:12;;;;;;;6.13;3.90;;;;;22.20;95910.00;;;;5048744;28;20220;-85
2023/08/03 06:37:01;;;;;;;5.60;3.70;;;;;22.20;95931.00;;;;5046338;28;20265;-85
2023/08/03 06:39:53;;;;;;;6.90;4.37;;;;;22.20;95929.00;;;;5037039;28;20266;-85
2023/08/03 06:42:42;;;;;;;9.17;4.00;;;;;22.10;95943.00;;;;5039929;28;20227;-84
2023/08/03 06:45:32;;;;;;;4.53;3.53;;;;;22.10;95940.00;;;;5043004;28;20201;-83
2023/08/03 06:48:23;;;;;;;5.10;3.10;;;;;22.20;95926.00;;;;5046978;28;20286;-85
2023/08/03 06:51:13;;;;;;;3.83;2.50;;;;;22.20;95919.00;;;;5047369;28;20212;-86
2023/08/03 06:54:02;;;;;;;3.67;2.37;;;;;22.20;95928.00;;;;5045293;28;20224;-85
2023/08/03 06:56:51;;;;;;;2.97;2.70;;;;;22.40;95929.00;;;;5048107;28;20204;-85
2023/08/03 06:59:41;;;;;;;2.50;2.07;;;;;22.50;95938.00;;;;5045803;28;20209;-85
2023/08/03 07:02:30;;;;;;;4.77;2.50;;;;;22.50;95954.00;;;;5044705;28;20664;-86
2023/08/03 07:05:20;;;;;;;2.27;2.07;;;;;22.60;95954.00;;;;5047553;28;20213;-85
2023/08/03 07:08:10;;;;;;;3.07;2.63;;;;;22.60;95939.00;;;;5046558;28;20217;-86
2023/08/03 07:10:59;;;;;;;5.10;2.10;;;;;22.70;95945.00;;;;5046222;28;20201;-87
2023/08/03 07:13:48;;;;;;;2.90;2.60;;;;;22.80;95948.00;;;;5043579;28;20291;-85
2023/08/03 07:16:38;;;;;;;2.97;2.23;;;;;22.90;95950.00;;;;5044952;28;20200;-86
2023/08/03 07:19:27;;;;;;;4.67;2.63;;;;;23.00;95949.00;;;;5047916;28;20727;-85
2023/08/03 07:22:18;;;;;;;3.63;2.70;;;;;23.10;95952.00;;;;5046571;28;20695;-86
2023/08/03 07:25:08;;;;;;;8.47;4.07;;;;;23.20;95957.00;;;;5044067;28;20200;-84
2023/08/03 07:27:57;;;;;;;7.17;3.23;;;;;23.10;95967.00;;;;5048755;28;20224;-85
2023/08/03 07:30:46;;;;;;;5.17;3.60;;;;;23.10;95973.00;;;;5046246;28;20209;-85
2023/08/03 07:33:35;;;;;;;6.70;2.73;;;;;22.90;95992.00;;;;5044726;28;20224;-85
2023/08/03 07:36:24;;;;;;;6.10;3.10;;;;;23.10;96003.00;;;;5043860;28;20249;-84
2023/08/03 07:39:15;;;;;;;9.93;4.43;;;;;23.00;96006.00;;;;5046642;28;20257;-87
2023/08/03 07:42:04;;;;;;;4.33;2.50;;;;;23.00;95997.00;;;;5040918;28;20200;-86
2023/08/03 07:44:53;;;;;;;3.03;2.33;;;;;22.80;96007.00;;;;5043700;28;20239;-85
2023/08/03 07:47:43;;;;;;;4.20;2.20;;;;;22.90;96006.00;;;;5044632;28;20298;-87
2023/08/03 07:50:32;;;;;;;3.47;2.20;;;;;22.90;96000.00;;;;5044322;28;20258;-86
2023/08/03 07:53:21;;;;;;;7.47;2.40;;;;;23.00;95999.00;;;;5047944;28;20224;-86
2023/08/03 07:56:16;;;;;;;3.07;1.60;;;;;22.80;96006.00;;;;5048229;28;20258;-84
2023/08/03 07:59:06;;;;;;;4.13;1.73;;;;;23.00;96010.00;;;;5046732;28;20710;-84
2023/08/03 08:01:55;;;;;;;7.07;1.87;;;;;23.10;96003.00;;;;5041316;28;20631;-84
2023/08/03 08:04:44;;;;;;;2.40;1.40;;;;;23.30;96018.00;;;;5045686;28;20273;-84
2023/08/03 08:07:33;;;;;;;2.83;2.60;;;;;23.20;96027.00;;;;5045034;28;20259;-83
2023/08/03 08:10:22;;;;;;;2.73;1.43;;;;;23.30;96031.00;;;;5045990;28;20223;-83
2023/08/03 08:13:13;;;;;;;3.07;2.00;;;;;23.40;96021.00;;;;5047614;28;20217;-84
2023/08/03 08:16:03;;;;;;;2.40;1.83;;;;;23.50;96027.00;;;;5050549;28;20207;-84
2023/08/03 08:18:52;;;;;;;1.77;1.67;;;;;23.40;96044.00;;;;5050260;28;20683;-84
2023/08/03 08:21:41;;;;;;;1.77;1.47;;;;;23.40;96054.00;;;;5050922;28;20266;-84
2023/08/03 08:24:31;;;;;;;2.87;1.40;;;;;23.20;96057.00;;;;5049361;28;20224;-84
2023/08/03 08:27:20;;;;;;;3.87;1.90;;;;;23.20;96066.00;;;;5050715;28;20208;-84
2023/08/03 08:30:11;;;;;;;1.47;1.37;;;;;23.00;96073.00;;;;5050360;28;20197;-84
2023/08/03 08:33:00;;;;;;;5.37;1.70;;;;;23.00;96069.00;;;;5042189;28;20325;-84
2023/08/03 08:35:51;;;;;;;2.63;2.13;;;;;22.90;96078.00;;;;5046668;28;20201;-84
2023/08/03 08:38:40;;;;;;;3.47;1.50;;;;;22.80;96073.00;;;;5049445;28;20326;-84
2023/08/03 08:41:30;;;;;;;2.03;1.43;;;;;22.60;96078.00;;;;5051042;28;20200;-84
2023/08/03 08:44:19;;;;;;;2.00;1.77;;;;;22.70;96069.00;;;;5046401;28;20227;-84
2023/08/03 08:47:09;;;;;;;2.23;2.10;;;;;22.70;96066.00;;;;5049073;28;20636;-84
2023/08/03 08:49:59;;;;;;;3.00;1.50;;;;;22.70;96084.00;;;;5049437;28;20204;-84
2023/08/03 08:52:52;;;;;;;1.83;1.40;;;;;22.60;96083.00;;;;5050285;28;20193;-83
2023/08/03 08:55:44;;;;;;;3.10;2.13;;;;;22.50;96084.00;;;;5049807;28;20213;-84
2023/08/03 08:58:36;;;;;;;2.47;1.47;;;;;22.70;96099.00;;;;5048675;28;20197;-83
2023/08/03 09:01:28;;;;;;;2.50;1.67;;;;;22.70;96093.00;;;;5048051;28;20231;-83
2023/08/03 09:04:30;;;;;;;3.70;1.73;;;;;22.60;96097.00;;;;5049666;28;20231;-84
2023/08/03 09:07:20;;;;;;;1.83;1.20;;;;;22.70;96103.00;;;;5049483;28;20207;-84
2023/08/03 09:10:10;;;;;;;5.87;1.53;;;;;22.60;96106.00;;;;5047530;28;20288;-84
2023/08/03 09:12:59;;;;;;;3.50;1.20;;;;;22.60;96115.00;;;;5050214;28;20201;-83
2023/08/03 09:15:48;;;;;;;2.87;1.67;;;;;22.50;96120.00;;;;5050317;28;20200;-83
2023/08/03 09:18:45;;;;;;;3.27;1.70;;;;;22.50;96117.00;;;;5049595;28;20211;-84
2023/08/03 09:21:35;;;;;;;3.30;1.57;;;;;22.60;96118.00;;;;5044760;28;20216;-84
2023/08/03 09:24:27;;;;;;;1.37;1.27;;;;;22.50;96112.00;;;;5050313;28;20230;-86
2023/08/03 09:27:19;;;;;;;4.97;1.60;;;;;22.60;96113.00;;;;5048897;28;20726;-85
2023/08/03 09:30:09;;;;;;;3.43;1.40;;;;;22.50;96119.00;;;;5049412;28;20224;-84
2023/08/03 09:33:01;;;;;;;5.40;1.40;;;;;22.60;96126.00;;;;5047698;28;20216;-85
2023/08/03 09:36:03;;;;;;;1.93;1.27;;;;;22.30;96117.00;;;;5050510;28;20266;-83
2023/08/03 09:38:54;;;;;;;9.07;4.73;;;;;22.40;96121.00;;;;5045372;28;20222;-84
2023/08/03 09:41:43;;;;;;;4.10;1.40;;;;;22.20;96125.00;;;;5050158;28;20204;-84
2023/08/03 09:44:36;;;;;;;2.07;1.27;;;;;22.30;96117.00;;;;5046929;28;20235;-84
2023/08/03 09:47:25;;;;;;;1.43;1.00;;;;;21.90;96122.00;;;;5047911;28;20209;-82
2023/08/03 09:50:16;;;;;;;1.87;1.13;;;;;22.00;96126.00;;;;5050675;28;20221;-83
2023/08/03 09:53:10;;;;;;;1.30;1.10;;;;;22.40;96135.00;;;;5048082;28;20235;-83
2023/08/03 09:56:05;;;;;;;6.00;1.77;;;;;22.60;96137.00;;;;5049283;28;20622;-83
2023/08/03 09:58:58;;;;;;;3.07;1.27;;;;;22.60;96133.00;;;;5049459;28;20290;-83
2023/08/03 10:01:48;;;;;;;1.67;1.30;;;;;22.40;96145.00;;;;5047950;28;20205;-84
2023/08/03 10:04:45;;;;;;;1.33;1.03;;;;;22.50;96139.00;;;;5047824;28;20239;-83
2023/08/03 10:07:39;;;;;;;2.60;1.40;;;;;22.40;96155.00;;;;5046424;28;20254;-83
2023/08/03 10:10:29;;;;;;;6.40;1.40;;;;;22.40;96152.00;;;;5047583;28;20228;-84
2023/08/03 10:13:20;;;;;;;1.63;1.20;;;;;22.30;96159.00;;;;5048969;28;20225;-84
2023/08/03 10:16:11;;;;;;;1.97;1.10;;;;;22.40;96159.00;;;;5049514;28;20223;-83
2023/08/03 10:19:01;;;;;;;1.97;1.17;;;;;22.30;96163.00;;;;5046061;28;20626;-82
2023/08/03 10:21:51;;;;;;;1.50;1.40;;;;;22.10;96163.00;;;;5043233;28;20281;-83
2023/08/03 10:24:40;;;;;;;4.50;1.40;;;;;21.80;96157.00;;;;5047277;28;20278;-84
2023/08/03 10:27:29;;;;;;;1.83;1.37;;;;;21.30;96172.00;;;;5047731;28;20272;-83
2023/08/03 10:30:19;;;;;;;1.30;0.93;;;;;21.50;96169.00;;;;5051622;28;20280;-84
2023/08/03 10:33:08;;;;;;;1.93;1.23;;;;;21.40;96176.00;;;;5047107;28;20243;-82
2023/08/03 10:35:57;;;;;;;2.03;1.53;;;;;21.50;96182.00;;;;5049124;28;20193;-83
2023/08/03 10:38:47;;;;;;;2.33;1.30;;;;;21.50;96182.00;;;;5048792;28;20200;-83
2023/08/03 10:41:37;;;;;;;1.30;1.20;;;;;21.30;96179.00;;;;5049017;28;20204;-80
2023/08/03 10:44:27;;;;;;;1.53;1.10;;;;;21.40;96180.00;;;;5048069;28;20231;-82
2023/08/03 10:47:29;;;;;;;3.87;1.43;;;;;21.40;96179.00;;;;5047007;28;20691;-84
2023/08/03 10:50:18;;;;;;;1.97;1.37;;;;;21.30;96172.00;;;;5050407;28;20717;-84
2023/08/03 10:53:08;;;;;;;1.67;1.33;;;;;21.40;96174.00;;;;5049485;28;20224;-83
2023/08/03 10:56:10;;;;;;;1.63;1.10;;;;;21.30;96170.00;;;;5051293;28;20204;-83
2023/08/03 10:58:59;;;;;;;1.47;1.20;;;;;21.00;96172.00;;;;5049379;28;20200;-82
2023/08/03 11:01:48;;;;;;;4.37;1.30;;;;;20.50;96165.00;;;;5050661;28;20205;-84
2023/08/03 11:04:39;;;;;;;2.37;1.60;;;;;20.50;96171.00;;;;5050209;28;20247;-82
2023/08/03 11:07:35;;;;;;;3.63;1.40;;;;;20.70;96162.00;;;;5048786;28;20215;-83
2023/08/03 11:10:25;;;;;;;3.50;1.60;;;;;20.90;96167.00;;;;5047803;28;20937;-82
2023/08/03 11:13:14;;;;;;;2.10;1.27;;;;;20.70;96161.00;;;;5050292;28;20235;-81
2023/08/03 11:16:03;;;;;;;3.10;1.17;;;;;20.50;96174.00;;;;5049632;28;20261;-83
2023/08/03 11:18:52;;;;;;;3.23;1.30;;;;;20.40;96166.00;;;;5049625;28;20204;-82
2023/08/03 11:21:43;;;;;;;2.60;1.33;;;;;20.70;96162.00;;;;5039371;28;20201;-82
2023/08/03 11:24:33;;;;;;;2.10;1.40;;;;;20.80;96166.00;;;;5046252;28;20220;-83
2023/08/03 11:27:22;;;;;;;1.43;1.33;;;;;20.70;96159.00;;;;5049149;28;20200;-82
2023/08/03 11:30:12;;;;;;;2.60;1.53;;;;;20.80;96170.00;;;;5048070;28;20220;-82
2023/08/03 11:33:01;;;;;;;2.40;1.40;;;;;20.80;96172.00;;;;5046744;28;20916;-83
2023/08/03 11:35:51;;;;;;;1.83;1.73;;;;;20.20;96179.00;;;;5041205;28;20204;-82
2023/08/03 11:38:41;;;;;;;2.33;1.90;;;;;20.20;96180.00;;;;5048626;28;20211;-82
2023/08/03 11:41:31;;;;;;;1.43;1.27;;;;;20.70;96182.00;;;;5043985;28;20196;-83
2023/08/03 11:44:22;;;;;;;1.13;1.03;;;;;20.80;96194.00;;;;5048011;28;20692;-83
2023/08/03 11:47:11;;;;;;;3.50;1.50;;;;;20.80;96192.00;;;;5046047;28;20391;-82
2023/08/03 11:50:04;;;;;;;1.63;1.03;;;;;20.80;96180.00;;;;5046738;28;20216;-83
2023/08/03 11:52:59;;;;;;;2.20;1.10;;;;;20.30;96179.00;;;;5051483;28;20208;-83
2023/08/03 11:55:57;;;;;;;5.40;1.63;;;;;20.50;96191.00;;;;5051903;28;20200;-83
2023/08/03 11:58:45;;;;;;;3.07;1.40;;;;;20.50;96213.00;;;;5049489;28;20205;-82
2023/08/03 12:01:43;;;;;;;2.10;1.47;;;;;20.60;96203.00;;;;5050381;28;20618;-83
2023/08/03 12:04:32;;;;;;;2.47;1.40;;;;;20.70;96202.00;;;;5048131;28;20220;-83
2023/08/03 12:07:23;;;;;;;1.93;1.20;;;;;20.70;96206.00;;;;5050536;28;20208;-83
2023/08/03 12:10:13;;;;;;;3.33;1.70;;;;;20.80;96210.00;;;;5047647;28;20221;-83
2023/08/03 12:13:06;;;;;;;3.23;1.53;;;;;20.90;96188.00;;;;5050146;28;20707;-82
2023/08/03 12:16:01;;;;;;;1.40;1.30;;;;;20.80;96206.00;;;;5052023;28;20212;-83
2023/08/03 12:18:50;;;;;;;2.70;1.17;;;;;20.80;96191.00;;;;5054324;28;20250;-83
2023/08/03 12:21:39;;;;;;;2.27;1.20;;;;;20.70;96213.00;;;;5051169;28;20297;-83
2023/08/03 12:24:29;;;;;;;2.40;1.50;;;;;20.50;96213.00;;;;5054879;28;20699;-83
2023/08/03 12:27:18;;;;;;;1.70;1.60;;;;;20.40;96199.00;;;;5055234;28;20200;-83
2023/08/03 12:30:13;;;;;;;3.57;1.60;;;;;20.40;96208.00;;;;5054489;28;20258;-81
2023/08/03 12:33:02;;;;;;;3.50;1.50;;;;;20.50;96213.00;;;;5055904;28;20229;-81
2023/08/03 12:35:52;;;;;;;1.53;1.43;;;;;20.70;96212.00;;;;5052145;28;20275;-83
2023/08/03 12:38:41;;;;;;;2.77;1.30;;;;;20.70;96191.00;;;;5055079;28;20253;-81
2023/08/03 12:41:30;;;;;;;4.97;1.47;;;;;20.60;96219.00;;;;5056186;28;20197;-82
2023/08/03 12:44:20;;;;;;;1.87;1.77;;;;;20.30;96239.00;;;;5058655;28;20228;-82
2023/08/03 12:47:11;;;;;;;4.10;1.50;;;;;20.00;96258.00;;;;5054781;28;20204;-82
2023/08/03 12:50:00;;;;;;;1.63;1.53;;;;;19.50;96253.00;;;;5059485;28;20255;-81
2023/08/03 12:52:49;;;;;;;3.67;1.80;;;;;20.10;96222.00;;;;5050848;28;20204;-83
2023/08/03 12:55:38;;;;;;;3.43;1.73;;;;;20.40;96222.00;;;;5050755;28;20254;-83
2023/08/03 12:58:27;;;;;;;1.43;1.27;;;;;20.30;96216.00;;;;5049530;28;20201;-84
2023/08/03 13:01:16;;;;;;;2.90;1.30;;;;;20.80;96219.00;;;;5046353;28;20729;-84
2023/08/03 13:04:07;;;;;;;3.00;1.57;;;;;20.60;96239.00;;;;5049323;28;20711;-83
2023/08/03 13:06:56;;;;;;;3.27;1.53;;;;;20.50;96255.00;;;;5048212;28;20197;-84
2023/08/03 13:09:45;;;;;;;3.43;1.47;;;;;20.00;96259.00;;;;5045122;28;20734;-85
2023/08/03 13:12:34;;;;;;;1.37;1.23;;;;;19.80;96261.00;;;;5048722;28;20740;-84
2023/08/03 13:15:23;;;;;;;4.60;1.63;;;;;20.30;96273.00;;;;5047605;28;20652;-84
2023/08/03 13:18:15;;;;;;;2.57;1.80;;;;;20.70;96273.00;;;;5050207;28;20204;-85
2023/08/03 13:21:06;;;;;;;4.30;1.80;;;;;21.00;96257.00;;;;5046461;28;20659;-85
2023/08/03 13:23:55;;;;;;;4.20;1.60;;;;;21.10;96258.00;;;;5048476;28;20285;-85
2023/08/03 13:26:47;;;;;;;2.30;1.97;;;;;21.20;96263.00;;;;5048727;28;20290;-85
2023/08/03 13:29:36;;;;;;;3.83;1.90;;;;;20.90;96256.00;;;;5042308;28;20216;-85
2023/08/03 13:32:26;;;;;;;9.43;2.20;;;;;21.00;96260.00;;;;5046994;28;20219;-84
2023/08/03 13:35:15;;;;;;;3.53;2.13;;;;;21.10;96264.00;;;;5046665;28;20224;-85
2023/08/03 13:38:06;;;;;;;2.93;1.40;;;;;21.10;96270.00;;;;5045854;28;20255;-85
2023/08/03 13:40:57;;;;;;;1.50;1.33;;;;;21.20;96273.00;;;;5040684;28;20213;-85
2023/08/03 13:43:46;;;;;;;4.57;2.97;;;;;21.20;96267.00;;;;5045134;28;20715;-85
2023/08/03 13:46:36;;;;;;;3.10;1.97;;;;;21.10;96267.00;;;;5046615;28;20205;-85
2023/08/03 13:49:25;;;;;;;2.83;1.50;;;;;20.70;96262.00;;;;5045612;28;20205;-85
2023/08/03 13:52:14;;;;;;;5.87;2.10;;;;;20.30;96267.00;;;;5045265;28;20229;-86
2023/08/03 13:55:05;;;;;;;4.27;2.40;;;;;20.60;96269.00;;;;5045860;28;20236;-85
2023/08/03 13:57:54;;;;;;;3.67;1.57;;;;;20.80;96264.00;;;;5049047;28;20219;-85
2023/08/03 14:00:48;;;;;;;4.60;1.97;;;;;20.90;96264.00;;;;5048281;28;20204;-85
2023/08/03 14:07:41;;;;;;;5.77;2.13;;;;;20.90;96269.00;;;;5043849;28;20205;-85
2023/08/03 14:10:37;;;;;;;3.60;2.23;;;;;21.10;96244.00;;;;5043509;28;20603;-85
2023/08/03 14:13:26;;;;;;;7.90;1.87;;;;;20.90;96274.00;;;;5046319;28;20234;-85